Time;durP1;ratioP1;P1;durP2;ratioP2;P2;SDS_P1;SDS_P2;PMS_P1;PMS_P2;Temp;Humidity;BMP_temperature;BMP_pressure;BME280_temperature;BME280_humidity;BME280_pressure;Samples;Min_cycle;Max_cycle;Signal;HPM_P1;HPM_P2
2022/08/03 00:01:51;;;;;;;8.00;4.40;;;;;;;;;;4971227;28;20062;-76
2022/08/03 00:04:16;;;;;;;7.90;5.03;;;;;;;;;;4953994;28;20063;-76
2022/08/03 00:06:42;;;;;;;8.50;5.00;;;;;;;;;;4952826;28;20082;-77
2022/08/03 00:09:08;;;;;;;6.55;4.50;;;;;;;;;;4952629;28;20460;-76
2022/08/03 00:11:35;;;;;;;8.82;5.07;;;;;;;;;;4952396;28;20069;-77
2022/08/03 00:14:01;;;;;;;5.35;4.70;;;;;;;;;;4968815;28;20027;-76
2022/08/03 00:16:27;;;;;;;6.90;4.20;;;;;;;;;;4952065;28;20031;-75
2022/08/03 00:18:52;;;;;;;9.10;4.55;;;;;;;;;;4953343;28;20095;-76
2022/08/03 00:21:18;;;;;;;7.60;4.25;;;;;;;;;;4953173;28;20031;-76
2022/08/03 00:23:44;;;;;;;6.10;4.40;;;;;;;;;;4952094;28;20490;-75
2022/08/03 00:26:09;;;;;;;9.23;4.47;;;;;;;;;;4951956;28;20028;-76
2022/08/03 00:28:35;;;;;;;8.07;5.20;;;;;;;;;;4951545;28;20427;-76
2022/08/03 00:31:00;;;;;;;8.18;4.90;;;;;;;;;;4953488;28;20038;-76
2022/08/03 00:33:26;;;;;;;8.20;5.60;;;;;;;;;;4968131;28;20023;-76
2022/08/03 00:35:51;;;;;;;8.63;5.93;;;;;;;;;;4951909;28;20027;-76
2022/08/03 00:38:18;;;;;;;6.03;4.60;;;;;;;;;;4952084;28;20523;-76
2022/08/03 00:40:43;;;;;;;11.40;4.85;;;;;;;;;;4951677;28;20143;-76
2022/08/03 00:43:10;;;;;;;5.47;4.28;;;;;;;;;;4951696;28;20522;-76
2022/08/03 00:45:38;;;;;;;5.05;4.55;;;;;;;;;;4951348;28;20038;-76
2022/08/03 00:48:05;;;;;;;6.25;5.15;;;;;;;;;;4952985;28;20121;-76
2022/08/03 00:50:34;;;;;;;7.95;5.07;;;;;;;;;;4967114;28;20154;-76
2022/08/03 00:53:02;;;;;;;5.50;4.53;;;;;;;;;;4951246;28;20023;-77
2022/08/03 00:55:28;;;;;;;7.57;4.68;;;;;;;;;;4952605;28;20019;-75
2022/08/03 00:57:54;;;;;;;8.60;4.38;;;;;;;;;;4967663;28;20133;-76
2022/08/03 01:00:23;;;;;;;4.80;4.10;;;;;;;;;;4951320;28;20051;-76
2022/08/03 01:02:48;;;;;;;7.63;4.50;;;;;;;;;;4952453;28;20037;-76
2022/08/03 01:05:14;;;;;;;6.75;4.65;;;;;;;;;;4950987;28;20031;-76
2022/08/03 01:08:11;;;;;;;7.70;4.65;;;;;;;;;;4951001;28;20216;-76
2022/08/03 01:10:52;;;;;;;7.95;6.78;;;;;;;;;;4950714;28;20090;-76
2022/08/03 01:13:27;;;;;;;8.00;4.60;;;;;;;;;;4966918;28;20181;-76
2022/08/03 01:16:29;;;;;;;6.65;4.75;;;;;;;;;;4952029;28;20035;-75
2022/08/03 01:18:58;;;;;;;6.15;4.40;;;;;;;;;;4967106;28;20070;-77
2022/08/03 01:21:32;;;;;;;4.53;4.13;;;;;;;;;;4951814;28;20035;-76
2022/08/03 01:24:22;;;;;;;7.22;5.50;;;;;;;;;;4961023;28;20062;-76
2022/08/03 01:27:01;;;;;;;6.18;4.15;;;;;;;;;;4970163;28;20315;-77
2022/08/03 01:29:55;;;;;;;7.10;4.35;;;;;;;;;;4970210;28;20037;-76
2022/08/03 01:32:25;;;;;;;10.00;5.75;;;;;;;;;;4969950;28;20027;-76
2022/08/03 01:35:08;;;;;;;8.40;5.25;;;;;;;;;;4971508;28;20447;-77
2022/08/03 01:37:39;;;;;;;7.28;4.20;;;;;;;;;;4969748;28;20160;-76
2022/08/03 01:40:07;;;;;;;9.65;5.00;;;;;;;;;;4971325;28;20023;-76
2022/08/03 01:42:35;;;;;;;7.00;4.75;;;;;;;;;;4969974;28;20122;-76
2022/08/03 01:45:02;;;;;;;4.38;3.97;;;;;;;;;;4969764;28;20442;-76
2022/08/03 01:47:29;;;;;;;6.93;4.70;;;;;;;;;;4986104;28;20027;-76
2022/08/03 01:49:56;;;;;;;9.95;4.45;;;;;;;;;;4971088;28;20031;-76
2022/08/03 01:52:23;;;;;;;5.43;4.13;;;;;;;;;;4971114;28;20030;-76
2022/08/03 01:54:52;;;;;;;22.17;5.60;;;;;;;;;;4970233;28;20105;-76
2022/08/03 01:57:20;;;;;;;6.32;4.57;;;;;;;;;;4970906;28;20089;-77
2022/08/03 01:59:47;;;;;;;8.27;5.95;;;;;;;;;;4985558;28;20022;-76
2022/08/03 02:02:15;;;;;;;6.72;4.78;;;;;;;;;;4970862;28;20117;-76
2022/08/03 02:04:43;;;;;;;6.57;4.10;;;;;;;;;;4970559;28;20062;-76
2022/08/03 02:07:09;;;;;;;5.85;4.43;;;;;;;;;;4985673;28;20081;-76
2022/08/03 02:09:38;;;;;;;6.93;4.82;;;;;;;;;;4969423;28;20030;-77
2022/08/03 02:12:09;;;;;;;7.65;5.18;;;;;;;;;;4969365;28;20046;-76
2022/08/03 02:14:35;;;;;;;6.50;4.65;;;;;;;;;;4969725;28;20133;-77
2022/08/03 02:17:01;;;;;;;6.00;4.30;;;;;;;;;;4969499;28;20061;-76
2022/08/03 02:19:27;;;;;;;9.40;5.20;;;;;;;;;;4969454;28;20066;-76
2022/08/03 02:21:53;;;;;;;6.57;4.72;;;;;;;;;;4971074;28;20052;-76
2022/08/03 02:24:18;;;;;;;13.30;5.03;;;;;;;;;;4957664;28;20472;-76
2022/08/03 02:26:45;;;;;;;6.78;5.47;;;;;;;;;;4949671;28;20027;-76
2022/08/03 02:29:15;;;;;;;5.88;4.43;;;;;;;;;;4954810;28;20035;-76
2022/08/03 02:31:42;;;;;;;5.90;4.50;;;;;;;;;;4955303;28;20050;-76
2022/08/03 02:34:13;;;;;;;8.27;4.95;;;;;;;;;;4953791;28;20035;-74
2022/08/03 02:36:41;;;;;;;10.32;5.20;;;;;;;;;;4955018;28;20034;-75
2022/08/03 02:39:10;;;;;;;9.07;4.75;;;;;;;;;;4970170;28;20039;-76
2022/08/03 02:41:50;;;;;;;4.45;4.05;;;;;;;;;;4953381;28;20125;-75
2022/08/03 02:44:20;;;;;;;7.28;4.68;;;;;;;;;;4969715;28;20041;-75
2022/08/03 02:46:48;;;;;;;6.10;4.40;;;;;;;;;;4953064;28;20168;-75
2022/08/03 02:49:17;;;;;;;8.75;4.80;;;;;;;;;;4953356;28;20392;-75
2022/08/03 02:51:44;;;;;;;6.63;5.35;;;;;;;;;;4969307;28;20042;-75
2022/08/03 02:54:13;;;;;;;8.93;4.82;;;;;;;;;;4955051;28;20027;-75
2022/08/03 02:56:40;;;;;;;7.63;5.00;;;;;;;;;;4953481;28;20110;-75
2022/08/03 02:59:06;;;;;;;7.25;5.03;;;;;;;;;;4953499;28;20031;-75
2022/08/03 03:01:32;;;;;;;6.90;4.78;;;;;;;;;;4969197;28;20098;-75
2022/08/03 03:03:59;;;;;;;6.28;4.70;;;;;;;;;;4969068;28;20053;-76
2022/08/03 03:06:25;;;;;;;9.07;5.15;;;;;;;;;;4953041;28;20368;-76
2022/08/03 03:08:51;;;;;;;8.65;5.38;;;;;;;;;;4953057;28;20247;-77
2022/08/03 03:11:20;;;;;;;6.82;4.63;;;;;;;;;;4952913;29;20166;-76
2022/08/03 03:13:47;;;;;;;5.43;4.55;;;;;;;;;;4953011;28;20030;-76
2022/08/03 03:16:14;;;;;;;7.63;5.03;;;;;;;;;;4954780;28;20030;-75
2022/08/03 03:18:43;;;;;;;7.32;4.85;;;;;;;;;;4953075;29;20475;-76
2022/08/03 03:21:09;;;;;;;5.57;4.85;;;;;;;;;;4952897;28;20546;-76
2022/08/03 03:23:37;;;;;;;9.85;4.85;;;;;;;;;;4961408;28;20034;-76
2022/08/03 03:26:04;;;;;;;7.93;5.07;;;;;;;;;;4972309;28;20031;-76
2022/08/03 03:28:30;;;;;;;6.95;5.25;;;;;;;;;;4971910;28;20038;-75
2022/08/03 03:30:56;;;;;;;10.55;5.15;;;;;;;;;;4988051;28;20117;-76
2022/08/03 03:33:22;;;;;;;6.53;4.95;;;;;;;;;;4971999;28;20049;-76
2022/08/03 03:35:48;;;;;;;6.95;4.95;;;;;;;;;;4972223;28;20451;-76
2022/08/03 03:38:14;;;;;;;6.70;5.03;;;;;;;;;;4972022;28;20034;-76
2022/08/03 03:40:40;;;;;;;8.63;5.35;;;;;;;;;;4970532;28;20418;-76
2022/08/03 03:43:14;;;;;;;7.63;5.30;;;;;;;;;;4987948;28;20434;-76
2022/08/03 03:45:41;;;;;;;6.18;5.35;;;;;;;;;;4987966;28;20534;-76
2022/08/03 03:48:07;;;;;;;7.57;4.65;;;;;;;;;;4973463;28;20050;-76
2022/08/03 03:50:34;;;;;;;5.70;4.80;;;;;;;;;;4971569;28;20031;-76
2022/08/03 03:53:01;;;;;;;9.63;6.13;;;;;;;;;;4988175;28;20475;-76
2022/08/03 03:55:27;;;;;;;8.40;5.50;;;;;;;;;;4971626;28;20026;-76
2022/08/03 03:57:53;;;;;;;8.38;5.53;;;;;;;;;;4971462;28;20483;-76
2022/08/03 04:00:19;;;;;;;12.05;5.45;;;;;;;;;;4971748;28;20470;-76
2022/08/03 04:02:45;;;;;;;11.25;7.45;;;;;;;;;;4971504;28;20062;-76
2022/08/03 04:11:05;;;;;;;7.35;5.95;;;;;;;;;;4976283;28;20590;-76
2022/08/03 04:13:38;;;;;;;9.23;5.28;;;;;;;;;;4974516;28;20058;-76
2022/08/03 04:16:06;;;;;;;7.22;5.65;;;;;;;;;;4975104;28;20046;-75
2022/08/03 04:18:34;;;;;;;12.15;5.72;;;;;;;;;;4976350;28;20031;-75
2022/08/03 04:21:03;;;;;;;9.30;5.75;;;;;;;;;;4979005;28;20471;-77
2022/08/03 04:23:33;;;;;;;7.75;5.07;;;;;;;;;;4950234;28;20480;-76
2022/08/03 04:26:02;;;;;;;8.57;5.43;;;;;;;;;;4952006;28;20041;-76
2022/08/03 04:28:29;;;;;;;9.30;5.60;;;;;;;;;;4953201;28;20035;-76
2022/08/03 04:30:56;;;;;;;10.20;5.63;;;;;;;;;;4951632;28;20035;-76
2022/08/03 04:33:26;;;;;;;10.85;5.63;;;;;;;;;;4967761;28;20451;-76
2022/08/03 04:35:56;;;;;;;12.30;5.65;;;;;;;;;;4953234;28;20047;-76
2022/08/03 04:38:24;;;;;;;8.68;5.85;;;;;;;;;;4951958;28;20114;-76
2022/08/03 04:40:51;;;;;;;7.72;5.53;;;;;;;;;;4953281;28;20031;-77
2022/08/03 04:43:17;;;;;;;9.25;5.55;;;;;;;;;;4951456;28;20042;-76
2022/08/03 04:45:46;;;;;;;9.57;5.28;;;;;;;;;;4952799;28;20031;-76
2022/08/03 04:48:14;;;;;;;6.43;4.97;;;;;;;;;;4951721;29;20066;-76
2022/08/03 04:50:40;;;;;;;8.05;5.68;;;;;;;;;;4950940;28;20328;-76
2022/08/03 04:53:06;;;;;;;5.95;5.43;;;;;;;;;;4952793;28;20031;-76
2022/08/03 04:55:33;;;;;;;9.20;5.30;;;;;;;;;;4955112;28;20363;-76
2022/08/03 04:58:00;;;;;;;9.75;5.30;;;;;;;;;;4958418;28;20501;-77
2022/08/03 05:00:26;;;;;;;13.43;6.03;;;;;;;;;;4958659;28;20091;-76
2022/08/03 05:02:52;;;;;;;6.43;5.00;;;;;;;;;;4956947;28;20066;-76
2022/08/03 05:05:18;;;;;;;7.18;5.30;;;;;;;;;;4953247;28;20094;-76
2022/08/03 05:07:44;;;;;;;12.27;5.70;;;;;;;;;;4969395;28;20023;-76
2022/08/03 05:10:11;;;;;;;8.18;4.75;;;;;;;;;;4952916;28;20086;-76
2022/08/03 05:12:37;;;;;;;5.82;4.57;;;;;;;;;;4951397;28;20028;-76
2022/08/03 05:15:03;;;;;;;6.07;4.53;;;;;;;;;;4970915;28;20088;-76
2022/08/03 05:17:29;;;;;;;7.85;4.68;;;;;;;;;;4972153;28;20023;-75
2022/08/03 05:19:54;;;;;;;6.65;5.38;;;;;;;;;;4950711;29;20053;-76
2022/08/03 05:22:21;;;;;;;11.70;5.03;;;;;;;;;;4951017;28;20466;-76
2022/08/03 05:24:47;;;;;;;5.32;4.25;;;;;;;;;;4970403;28;20449;-76
2022/08/03 05:27:18;;;;;;;11.73;4.78;;;;;;;;;;4960077;28;20526;-76
2022/08/03 05:29:44;;;;;;;10.80;4.80;;;;;;;;;;4968848;28;20431;-76
2022/08/03 05:32:10;;;;;;;8.15;4.60;;;;;;;;;;4982404;28;20089;-76
2022/08/03 05:34:38;;;;;;;6.03;4.25;;;;;;;;;;4964212;28;20027;-75
2022/08/03 05:37:03;;;;;;;6.32;3.92;;;;;;;;;;4961714;28;20019;-76
2022/08/03 05:39:29;;;;;;;9.52;6.18;;;;;;;;;;4972670;28;20038;-76
2022/08/03 05:41:54;;;;;;;9.27;4.95;;;;;;;;;;4967846;28;20399;-76
2022/08/03 05:44:19;;;;;;;11.85;4.50;;;;;;;;;;4967173;28;20069;-76
2022/08/03 05:46:45;;;;;;;11.95;5.15;;;;;;;;;;4965636;28;20088;-76
2022/08/03 05:49:11;;;;;;;11.88;4.30;;;;;;;;;;4975555;28;20027;-77
2022/08/03 05:51:36;;;;;;;6.35;4.75;;;;;;;;;;4966428;28;20466;-76
2022/08/03 05:54:02;;;;;;;5.78;4.43;;;;;;;;;;4956951;28;20031;-76
2022/08/03 05:56:28;;;;;;;8.02;4.43;;;;;;;;;;4957800;28;20058;-76
2022/08/03 05:58:53;;;;;;;6.78;4.45;;;;;;;;;;4973286;28;20031;-76
2022/08/03 06:01:22;;;;;;;5.15;4.38;;;;;;;;;;4983591;28;20039;-76
2022/08/03 06:03:49;;;;;;;6.53;4.57;;;;;;;;;;4975122;28;20030;-76
2022/08/03 06:06:15;;;;;;;8.48;4.15;;;;;;;;;;4963654;28;20480;-76
2022/08/03 06:08:42;;;;;;;7.40;4.55;;;;;;;;;;4962129;28;20034;-77
2022/08/03 06:11:08;;;;;;;31.00;14.45;;;;;;;;;;4958077;28;20051;-76
2022/08/03 06:13:34;;;;;;;10.93;6.28;;;;;;;;;;4967501;28;20106;-76
2022/08/03 06:15:59;;;;;;;9.07;4.82;;;;;;;;;;4977783;28;20475;-74
2022/08/03 06:18:25;;;;;;;8.98;4.60;;;;;;;;;;4973130;28;20367;-76
2022/08/03 06:20:51;;;;;;;8.88;4.53;;;;;;;;;;4964745;28;20042;-78
2022/08/03 06:23:17;;;;;;;20.73;7.97;;;;;;;;;;4967049;28;20031;-76
2022/08/03 06:25:42;;;;;;;14.35;6.13;;;;;;;;;;4962266;28;20037;-77
2022/08/03 06:28:08;;;;;;;9.25;4.38;;;;;;;;;;4972261;28;20029;-75
2022/08/03 06:30:34;;;;;;;5.70;4.05;;;;;;;;;;4965427;28;20476;-75
2022/08/03 06:32:59;;;;;;;11.77;4.60;;;;;;;;;;4960636;28;20027;-76
2022/08/03 06:35:26;;;;;;;4.60;3.80;;;;;;;;;;4974578;28;20027;-76
2022/08/03 06:37:52;;;;;;;6.28;4.38;;;;;;;;;;4963717;28;20027;-76
2022/08/03 06:40:27;;;;;;;5.50;4.50;;;;;;;;;;4955241;28;20027;-77
2022/08/03 06:42:52;;;;;;;6.82;4.10;;;;;;;;;;4975925;28;20094;-77
2022/08/03 06:45:18;;;;;;;5.47;4.18;;;;;;;;;;4960915;28;20400;-78
2022/08/03 06:47:44;;;;;;;9.52;4.55;;;;;;;;;;4962320;28;20504;-77
2022/08/03 06:50:09;;;;;;;5.55;4.20;;;;;;;;;;4968174;28;20027;-76
2022/08/03 06:52:35;;;;;;;5.32;4.38;;;;;;;;;;4978971;28;20026;-76
2022/08/03 06:55:00;;;;;;;7.00;4.15;;;;;;;;;;4973856;28;20475;-77
2022/08/03 06:57:26;;;;;;;6.45;4.13;;;;;;;;;;4971624;28;20694;-76
2022/08/03 06:59:52;;;;;;;5.25;4.35;;;;;;;;;;4981472;28;20066;-77
2022/08/03 07:02:20;;;;;;;9.88;4.57;;;;;;;;;;4964182;28;20030;-76
2022/08/03 07:04:47;;;;;;;8.88;4.20;;;;;;;;;;4980073;28;20086;-77
2022/08/03 07:07:13;;;;;;;6.50;4.18;;;;;;;;;;4953138;28;20042;-77
2022/08/03 07:09:38;;;;;;;5.75;4.28;;;;;;;;;;4965449;28;20475;-76
2022/08/03 07:12:05;;;;;;;8.52;4.22;;;;;;;;;;4956488;28;20058;-76
2022/08/03 07:14:31;;;;;;;7.75;4.70;;;;;;;;;;4966925;28;20420;-76
2022/08/03 07:16:56;;;;;;;4.82;4.05;;;;;;;;;;4969143;28;20058;-77
2022/08/03 07:19:22;;;;;;;4.20;3.70;;;;;;;;;;4961121;28;20662;-76
2022/08/03 07:21:49;;;;;;;7.13;4.22;;;;;;;;;;4960067;28;20034;-76
2022/08/03 07:24:19;;;;;;;6.60;4.28;;;;;;;;;;4961523;28;20018;-78
2022/08/03 07:26:45;;;;;;;8.95;3.75;;;;;;;;;;4961973;28;20030;-77
2022/08/03 07:29:12;;;;;;;8.13;4.13;;;;;;;;;;4956877;28;20031;-76
2022/08/03 07:31:37;;;;;;;6.95;3.72;;;;;;;;;;4961768;28;20469;-77
2022/08/03 07:34:04;;;;;;;6.82;4.50;;;;;;;;;;4963527;28;20125;-77
2022/08/03 07:36:31;;;;;;;8.40;5.03;;;;;;;;;;4967519;28;20038;-77
2022/08/03 07:38:57;;;;;;;8.85;4.13;;;;;;;;;;4966909;28;20030;-77
2022/08/03 07:41:23;;;;;;;9.63;4.07;;;;;;;;;;4976253;28;20799;-76
2022/08/03 07:43:49;;;;;;;9.40;4.82;;;;;;;;;;4979959;28;20039;-77
2022/08/03 07:46:14;;;;;;;11.70;5.00;;;;;;;;;;4967269;28;20027;-80
2022/08/03 07:48:41;;;;;;;5.32;3.47;;;;;;;;;;4965093;28;20031;-76
2022/08/03 07:51:07;;;;;;;5.70;3.80;;;;;;;;;;4968542;28;20035;-77
2022/08/03 07:53:33;;;;;;;9.65;4.43;;;;;;;;;;4972708;28;20498;-76
2022/08/03 07:55:58;;;;;;;5.80;4.00;;;;;;;;;;4965325;28;20050;-78
2022/08/03 07:58:24;;;;;;;8.13;4.60;;;;;;;;;;4965777;28;20035;-76
2022/08/03 08:00:51;;;;;;;5.30;3.67;;;;;;;;;;4967024;28;20038;-78
2022/08/03 08:03:17;;;;;;;8.93;3.78;;;;;;;;;;4967301;28;20066;-76
2022/08/03 08:05:42;;;;;;;6.97;3.65;;;;;;;;;;4985571;28;20113;-78
2022/08/03 08:08:08;;;;;;;3.97;3.30;;;;;;;;;;4962571;28;20062;-76
2022/08/03 08:10:37;;;;;;;7.50;4.47;;;;;;;;;;4958399;28;20616;-77
2022/08/03 08:13:17;;;;;;;7.43;3.72;;;;;;;;;;4968354;28;20459;-77
2022/08/03 08:15:44;;;;;;;6.70;4.55;;;;;;;;;;4957898;28;20050;-78
2022/08/03 08:18:11;;;;;;;8.85;5.40;;;;;;;;;;4962856;28;20038;-79
2022/08/03 08:20:37;;;;;;;8.40;4.22;;;;;;;;;;4966658;28;20527;-77
2022/08/03 08:23:06;;;;;;;5.72;3.55;;;;;;;;;;4962755;28;20142;-75
2022/08/03 08:25:31;;;;;;;4.75;3.50;;;;;;;;;;4967472;28;20031;-77
2022/08/03 08:28:09;;;;;;;6.38;3.25;;;;;;;;;;4982953;28;20046;-78
2022/08/03 08:30:35;;;;;;;4.22;3.33;;;;;;;;;;4965488;28;20027;-76
2022/08/03 08:33:01;;;;;;;3.67;2.97;;;;;;;;;;4981404;28;20038;-76
2022/08/03 08:35:27;;;;;;;6.25;2.88;;;;;;;;;;4969590;28;20034;-76
2022/08/03 08:37:53;;;;;;;3.22;2.70;;;;;;;;;;4963747;28;20094;-77
2022/08/03 08:40:21;;;;;;;4.55;3.10;;;;;;;;;;4963942;28;20030;-76
2022/08/03 08:42:47;;;;;;;5.28;4.05;;;;;;;;;;4963803;28;20034;-77
2022/08/03 08:45:14;;;;;;;5.05;3.38;;;;;;;;;;4960478;28;20038;-76
2022/08/03 08:47:44;;;;;;;4.95;3.42;;;;;;;;;;4970604;28;20034;-77
2022/08/03 08:50:10;;;;;;;8.85;4.07;;;;;;;;;;4958535;28;20059;-77
2022/08/03 08:52:40;;;;;;;14.70;4.57;;;;;;;;;;4967321;28;20078;-78
2022/08/03 08:55:09;;;;;;;6.68;3.75;;;;;;;;;;4963770;28;20050;-76
2022/08/03 08:57:41;;;;;;;6.20;4.05;;;;;;;;;;4959446;28;20581;-77
2022/08/03 09:00:12;;;;;;;8.52;3.53;;;;;;;;;;4952716;28;20468;-76
2022/08/03 09:02:38;;;;;;;5.30;3.60;;;;;;;;;;4964315;28;20491;-76
2022/08/03 09:05:04;;;;;;;10.18;5.35;;;;;;;;;;4957496;28;20045;-78
2022/08/03 09:07:30;;;;;;;10.00;4.30;;;;;;;;;;4961859;28;20507;-76
2022/08/03 09:09:56;;;;;;;6.70;3.28;;;;;;;;;;4961788;28;20034;-77
2022/08/03 09:12:21;;;;;;;5.88;3.00;;;;;;;;;;4977528;28;20050;-77
2022/08/03 09:14:48;;;;;;;5.30;2.90;;;;;;;;;;4957140;28;20487;-76
2022/08/03 09:17:13;;;;;;;6.13;3.22;;;;;;;;;;4959595;28;20038;-76
2022/08/03 09:19:39;;;;;;;3.63;3.30;;;;;;;;;;4977013;28;20031;-75
2022/08/03 09:22:15;;;;;;;6.35;3.70;;;;;;;;;;4959144;28;20121;-72
2022/08/03 09:24:59;;;;;;;6.30;5.10;;;;;;;;;;4958836;28;20395;-73
2022/08/03 09:27:24;;;;;;;7.55;3.95;;;;;;;;;;4964085;28;20054;-73
2022/08/03 09:29:52;;;;;;;7.35;3.10;;;;;;;;;;4967681;28;20023;-76
2022/08/03 09:32:23;;;;;;;6.40;3.90;;;;;;;;;;4964204;28;20034;-76
2022/08/03 09:34:50;;;;;;;6.00;3.50;;;;;;;;;;4965331;28;20041;-76
2022/08/03 09:37:18;;;;;;;4.93;3.50;;;;;;;;;;4976923;28;20174;-76
2022/08/03 09:39:44;;;;;;;3.53;3.15;;;;;;;;;;4981927;28;20563;-76
2022/08/03 09:42:16;;;;;;;9.77;3.65;;;;;;;;;;4967045;28;20101;-76
2022/08/03 09:44:44;;;;;;;8.52;3.78;;;;;;;;;;4967423;28;20475;-76
2022/08/03 09:47:26;;;;;;;4.57;3.33;;;;;;;;;;4966021;28;20060;-72
2022/08/03 09:50:02;;;;;;;5.43;3.55;;;;;;;;;;4964700;28;20161;-73
2022/08/03 09:52:36;;;;;;;6.55;2.90;;;;;;;;;;4968963;28;20042;-74
2022/08/03 09:55:12;;;;;;;3.63;3.33;;;;;;;;;;4967309;28;20027;-74
2022/08/03 09:57:39;;;;;;;4.72;2.72;;;;;;;;;;4962454;28;20121;-72
2022/08/03 10:00:15;;;;;;;6.05;3.22;;;;;;;;;;4965441;28;20030;-73
2022/08/03 10:02:42;;;;;;;4.93;3.15;;;;;;;;;;4975121;28;20094;-73
2022/08/03 10:05:10;;;;;;;5.00;3.08;;;;;;;;;;4959590;28;20035;-73
2022/08/03 10:07:48;;;;;;;4.85;3.15;;;;;;;;;;4980206;28;20041;-76
2022/08/03 10:10:19;;;;;;;3.90;3.20;;;;;;;;;;4979332;28;20186;-74
2022/08/03 10:12:47;;;;;;;4.78;3.13;;;;;;;;;;4958859;28;20642;-74
2022/08/03 10:15:13;;;;;;;2.92;2.63;;;;;;;;;;4951480;28;20054;-73
2022/08/03 10:17:38;;;;;;;5.32;3.60;;;;;;;;;;4962679;28;20069;-76
2022/08/03 10:20:05;;;;;;;6.10;3.33;;;;;;;;;;4961902;28;20039;-75
2022/08/03 10:22:38;;;;;;;4.43;3.05;;;;;;;;;;4955283;28;20043;-76
2022/08/03 10:25:15;;;;;;;4.30;2.72;;;;;;;;;;4959603;28;20117;-76
2022/08/03 10:27:43;;;;;;;3.75;3.17;;;;;;;;;;4964339;28;20374;-75
2022/08/03 10:30:10;;;;;;;4.72;3.03;;;;;;;;;;4971369;28;20045;-75
2022/08/03 10:32:56;;;;;;;3.92;2.55;;;;;;;;;;4963976;28;20059;-77
2022/08/03 10:35:23;;;;;;;7.50;3.40;;;;;;;;;;4949653;28;20489;-75
2022/08/03 10:38:00;;;;;;;3.90;3.38;;;;;;;;;;4973468;28;20276;-77
2022/08/03 10:40:28;;;;;;;3.17;2.75;;;;;;;;;;4982430;28;20030;-77
2022/08/03 10:43:10;;;;;;;3.65;3.08;;;;;;;;;;4977023;28;20118;-76
2022/08/03 10:45:40;;;;;;;6.32;3.10;;;;;;;;;;4980500;28;20105;-76
2022/08/03 10:48:06;;;;;;;13.40;3.00;;;;;;;;;;4964520;28;20031;-74
2022/08/03 10:50:32;;;;;;;9.10;2.90;;;;;;;;;;4965713;28;20124;-73
2022/08/03 10:53:06;;;;;;;8.60;2.85;;;;;;;;;;4966205;28;20030;-77
2022/08/03 10:58:36;;;;;;;4.07;2.85;;;;;;;;;;4968645;28;20160;-77
2022/08/03 11:01:06;;;;;;;5.68;2.83;;;;;;;;;;4980103;28;20483;-75
2022/08/03 11:03:53;;;;;;;6.70;3.20;;;;;;;;;;4970170;28;20047;-76
2022/08/03 11:06:21;;;;;;;4.05;3.05;;;;;;;;;;4969449;28;20059;-76
2022/08/03 11:08:48;;;;;;;4.35;2.75;;;;;;;;;;4981370;28;20045;-77
2022/08/03 11:11:19;;;;;;;5.85;2.78;;;;;;;;;;4961511;28;20373;-76
2022/08/03 11:14:17;;;;;;;5.20;3.45;;;;;;;;;;4961495;28;20451;-77
2022/08/03 11:16:47;;;;;;;5.22;2.80;;;;;;;;;;4952065;28;20181;-75
2022/08/03 11:19:21;;;;;;;4.57;3.10;;;;;;;;;;4957263;28;20483;-75
2022/08/03 11:21:49;;;;;;;4.57;2.65;;;;;;;;;;4978902;28;20027;-75
2022/08/03 11:24:40;;;;;;;7.40;2.90;;;;;;;;;;4965164;28;20027;-74
2022/08/03 11:27:19;;;;;;;5.88;3.40;;;;;;;;;;4981547;28;20031;-75
2022/08/03 11:30:06;;;;;;;4.07;2.55;;;;;;;;;;4965274;28;20038;-75
2022/08/03 11:32:39;;;;;;;3.22;2.28;;;;;;;;;;4982720;28;20491;-75
2022/08/03 11:35:16;;;;;;;5.97;2.65;;;;;;;;;;4958168;28;20039;-75
2022/08/03 11:38:00;;;;;;;3.03;2.65;;;;;;;;;;4981331;28;20054;-74
2022/08/03 11:40:46;;;;;;;7.65;3.35;;;;;;;;;;4959755;28;20490;-77
2022/08/03 11:43:44;;;;;;;3.05;2.67;;;;;;;;;;4984928;28;20073;-76
2022/08/03 11:46:15;;;;;;;5.18;2.80;;;;;;;;;;4984491;28;20130;-76
2022/08/03 11:48:43;;;;;;;5.15;2.90;;;;;;;;;;4982976;28;20057;-77
2022/08/03 11:51:26;;;;;;;4.60;3.20;;;;;;;;;;4978094;28;20091;-75
2022/08/03 11:54:00;;;;;;;2.90;2.53;;;;;;;;;;4962691;28;20030;-74
2022/08/03 11:56:27;;;;;;;5.97;2.47;;;;;;;;;;4970815;28;20034;-74
2022/08/03 11:58:58;;;;;;;5.85;2.80;;;;;;;;;;4963883;28;20031;-73
2022/08/03 12:01:24;;;;;;;6.32;3.10;;;;;;;;;;4957414;28;20141;-76
2022/08/03 12:03:50;;;;;;;4.40;3.05;;;;;;;;;;4961722;28;20031;-76
2022/08/03 12:06:17;;;;;;;3.72;2.33;;;;;;;;;;4964651;28;20031;-77
2022/08/03 12:08:45;;;;;;;5.80;2.42;;;;;;;;;;4975206;28;20067;-77
2022/08/03 12:11:13;;;;;;;3.88;2.47;;;;;;;;;;4982360;28;20081;-76
2022/08/03 12:13:55;;;;;;;5.80;3.08;;;;;;;;;;4959288;28;20034;-77
2022/08/03 12:16:22;;;;;;;4.10;2.35;;;;;;;;;;4964357;28;20154;-77
2022/08/03 12:19:03;;;;;;;2.97;2.67;;;;;;;;;;4952239;28;20530;-77
2022/08/03 12:21:29;;;;;;;;;;;;;;;;;;4962208;28;20027;-79
2022/08/03 12:23:58;;;;;;;2.40;2.20;;;;;;;;;;4962572;28;19943;-76
2022/08/03 12:26:24;;;;;;;5.05;3.00;;;;;;;;;;4964137;28;20038;-76
2022/08/03 12:28:50;;;;;;;5.93;2.50;;;;;;;;;;4957010;28;20105;-78
2022/08/03 12:31:17;;;;;;;4.55;2.35;;;;;;;;;;4958749;28;20174;-77
2022/08/03 12:34:02;;;;;;;3.63;2.70;;;;;;;;;;4970939;28;20081;-77
2022/08/03 12:36:29;;;;;;;3.33;2.20;;;;;;;;;;4967449;28;20062;-78
2022/08/03 12:39:04;;;;;;;4.70;2.20;;;;;;;;;;4963080;28;20190;-77
2022/08/03 12:41:32;;;;;;;10.80;2.90;;;;;;;;;;4967917;28;20037;-77
2022/08/03 12:43:58;;;;;;;5.00;3.22;;;;;;;;;;4963480;28;20133;-77
2022/08/03 12:46:39;;;;;;;3.22;2.28;;;;;;;;;;4967600;28;20058;-78
2022/08/03 12:49:10;;;;;;;2.78;2.22;;;;;;;;;;4966195;28;20038;-77
2022/08/03 12:51:41;;;;;;;4.35;2.78;;;;;;;;;;4961520;28;20026;-77
2022/08/03 12:54:08;;;;;;;2.33;2.13;;;;;;;;;;4984920;28;20120;-78
2022/08/03 12:56:34;;;;;;;9.15;3.20;;;;;;;;;;4974007;28;20019;-76
2022/08/03 12:59:00;;;;;;;6.32;2.95;;;;;;;;;;4975215;28;20027;-78
2022/08/03 13:01:34;;;;;;;2.15;2.00;;;;;;;;;;4970278;28;20059;-77
2022/08/03 13:04:00;;;;;;;2.55;2.35;;;;;;;;;;4966520;28;20031;-77
2022/08/03 13:06:26;;;;;;;6.30;2.63;;;;;;;;;;4966906;28;20129;-78
2022/08/03 13:09:05;;;;;;;3.90;2.42;;;;;;;;;;4971764;28;20054;-74
2022/08/03 13:11:31;;;;;;;5.15;2.38;;;;;;;;;;4978622;28;20146;-76
2022/08/03 13:13:57;;;;;;;3.13;2.30;;;;;;;;;;4989127;28;20043;-77
2022/08/03 13:16:23;;;;;;;2.28;2.08;;;;;;;;;;4977304;28;20065;-76
2022/08/03 13:18:50;;;;;;;3.42;2.20;;;;;;;;;;4974999;28;20070;-75
2022/08/03 13:21:17;;;;;;;3.85;2.38;;;;;;;;;;4984528;28;20506;-75
2022/08/03 13:23:42;;;;;;;3.05;2.08;;;;;;;;;;4960520;28;20130;-76
2022/08/03 13:26:09;;;;;;;1.90;1.70;;;;;;;;;;4972186;28;20448;-75
2022/08/03 13:28:34;;;;;;;4.72;2.33;;;;;;;;;;4959472;28;20039;-76
2022/08/03 13:31:00;;;;;;;4.45;2.88;;;;;;;;;;4957069;28;20106;-76
2022/08/03 13:33:27;;;;;;;6.72;2.47;;;;;;;;;;4969817;28;21075;-76
2022/08/03 13:35:55;;;;;;;2.60;2.40;;;;;;;;;;4962608;28;20019;-76
2022/08/03 13:38:20;;;;;;;5.93;2.80;;;;;;;;;;4975267;28;20141;-75
2022/08/03 13:40:56;;;;;;;4.43;2.47;;;;;;;;;;4963986;28;20113;-79
2022/08/03 13:43:28;;;;;;;4.20;2.38;;;;;;;;;;4966832;28;20035;-79
2022/08/03 13:45:55;;;;;;;4.38;2.53;;;;;;;;;;4975304;28;20062;-79
2022/08/03 13:48:21;;;;;;;3.35;2.63;;;;;;;;;;4960609;28;20059;-79
2022/08/03 13:50:47;;;;;;;5.50;2.90;;;;;;;;;;4983696;28;20494;-76
2022/08/03 13:53:14;;;;;;;3.97;2.83;;;;;;;;;;4971097;28;20030;-79
2022/08/03 13:55:39;;;;;;;5.45;2.13;;;;;;;;;;4974581;28;20030;-79
2022/08/03 13:58:14;;;;;;;3.60;2.65;;;;;;;;;;4978131;28;20026;-79
2022/08/03 14:00:40;;;;;;;4.43;2.30;;;;;;;;;;4985101;28;20038;-79
2022/08/03 14:03:07;;;;;;;2.95;2.30;;;;;;;;;;4975850;28;20026;-79
2022/08/03 14:05:34;;;;;;;2.78;2.08;;;;;;;;;;4971518;28;20034;-78
2022/08/03 14:08:01;;;;;;;2.40;1.95;;;;;;;;;;4963973;28;20026;-80
2022/08/03 14:10:27;;;;;;;4.03;2.22;;;;;;;;;;4966808;28;20121;-78
2022/08/03 14:12:54;;;;;;;3.95;2.25;;;;;;;;;;4960999;28;20097;-79
2022/08/03 14:15:20;;;;;;;6.60;1.95;;;;;;;;;;4963394;28;20071;-79
2022/08/03 14:17:45;;;;;;;2.17;1.85;;;;;;;;;;4961790;28;20074;-79
2022/08/03 14:20:12;;;;;;;2.85;1.92;;;;;;;;;;4965018;28;20031;-78
2022/08/03 14:22:37;;;;;;;4.05;2.00;;;;;;;;;;4961660;28;20073;-79
2022/08/03 14:25:03;;;;;;;9.10;2.00;;;;;;;;;;4959204;28;20452;-78
2022/08/03 14:27:29;;;;;;;2.70;1.90;;;;;;;;;;4967434;28;20034;-77
2022/08/03 14:30:00;;;;;;;2.85;1.60;;;;;;;;;;4974587;28;20033;-79
2022/08/03 14:32:26;;;;;;;2.63;2.08;;;;;;;;;;4973315;28;20521;-79
2022/08/03 14:34:52;;;;;;;2.05;1.85;;;;;;;;;;4961223;28;20059;-79
2022/08/03 14:37:18;;;;;;;8.27;2.22;;;;;;;;;;4983978;28;20023;-79
2022/08/03 14:39:45;;;;;;;3.17;2.80;;;;;;;;;;4962711;28;20376;-79
2022/08/03 14:42:12;;;;;;;2.47;1.98;;;;;;;;;;4986097;28;20037;-77
2022/08/03 14:44:38;;;;;;;2.00;1.73;;;;;;;;;;4978334;28;20046;-79
2022/08/03 14:47:03;;;;;;;3.35;2.05;;;;;;;;;;4977004;28;20486;-77
2022/08/03 14:49:29;;;;;;;2.00;1.80;;;;;;;;;;4987519;28;20030;-79
2022/08/03 14:51:54;;;;;;;5.72;1.83;;;;;;;;;;4982508;28;20035;-79
2022/08/03 14:54:21;;;;;;;1.73;1.63;;;;;;;;;;4984666;28;20058;-76
2022/08/03 14:56:47;;;;;;;4.32;1.92;;;;;;;;;;4974694;28;20029;-76
2022/08/03 14:59:12;;;;;;;6.35;2.30;;;;;;;;;;4983876;28;20121;-77
2022/08/03 15:01:38;;;;;;;4.05;2.00;;;;;;;;;;4983570;28;20039;-77